sensor_id;sensor_type;location;lat;lon;timestamp;P1;durP1;ratioP1;P2;durP2;ratioP2
79702;SDS011;69172;52.352;5.006;2023-07-13T00:00:12;19.73;;;4.45;;
79702;SDS011;69172;52.352;5.006;2023-07-13T00:02:41;16.13;;;4.25;;
79702;SDS011;69172;52.352;5.006;2023-07-13T00:05:07;19.70;;;4.25;;
79702;SDS011;69172;52.352;5.006;2023-07-13T00:07:33;14.73;;;3.60;;
79702;SDS011;69172;52.352;5.006;2023-07-13T00:10:01;17.75;;;3.88;;
79702;SDS011;69172;52.352;5.006;2023-07-13T00:12:31;18.20;;;4.35;;
79702;SDS011;69172;52.352;5.006;2023-07-13T00:15:00;21.95;;;5.40;;
79702;SDS011;69172;52.352;5.006;2023-07-13T00:17:29;19.63;;;4.30;;
79702;SDS011;69172;52.352;5.006;2023-07-13T00:19:55;24.88;;;3.85;;
79702;SDS011;69172;52.352;5.006;2023-07-13T00:22:22;15.20;;;3.88;;
79702;SDS011;69172;52.352;5.006;2023-07-13T00:24:50;20.63;;;3.80;;
79702;SDS011;69172;52.352;5.006;2023-07-13T00:27:17;23.23;;;4.93;;
79702;SDS011;69172;52.352;5.006;2023-07-13T00:29:43;19.02;;;3.83;;
79702;SDS011;69172;52.352;5.006;2023-07-13T00:32:09;19.52;;;4.03;;
79702;SDS011;69172;52.352;5.006;2023-07-13T00:34:36;19.20;;;4.15;;
79702;SDS011;69172;52.352;5.006;2023-07-13T00:37:03;18.13;;;4.15;;
79702;SDS011;69172;52.352;5.006;2023-07-13T00:39:31;19.30;;;4.38;;
79702;SDS011;69172;52.352;5.006;2023-07-13T00:41:57;17.73;;;4.18;;
79702;SDS011;69172;52.352;5.006;2023-07-13T00:44:23;18.30;;;4.03;;
79702;SDS011;69172;52.352;5.006;2023-07-13T00:46:50;16.83;;;3.67;;
79702;SDS011;69172;52.352;5.006;2023-07-13T00:49:16;20.35;;;4.38;;
79702;SDS011;69172;52.352;5.006;2023-07-13T00:51:49;26.23;;;4.22;;
79702;SDS011;69172;52.352;5.006;2023-07-13T00:54:20;21.40;;;4.35;;
79702;SDS011;69172;52.352;5.006;2023-07-13T00:56:51;16.60;;;3.88;;
79702;SDS011;69172;52.352;5.006;2023-07-13T00:59:18;21.13;;;4.72;;
79702;SDS011;69172;52.352;5.006;2023-07-13T01:01:46;21.00;;;3.80;;
79702;SDS011;69172;52.352;5.006;2023-07-13T01:04:12;18.67;;;4.53;;
79702;SDS011;69172;52.352;5.006;2023-07-13T01:06:39;17.67;;;4.47;;
79702;SDS011;69172;52.352;5.006;2023-07-13T01:09:06;15.68;;;3.80;;
79702;SDS011;69172;52.352;5.006;2023-07-13T01:11:33;13.95;;;2.97;;
79702;SDS011;69172;52.352;5.006;2023-07-13T01:14:00;15.40;;;3.78;;
79702;SDS011;69172;52.352;5.006;2023-07-13T01:16:28;15.25;;;4.00;;
79702;SDS011;69172;52.352;5.006;2023-07-13T01:18:56;23.70;;;4.28;;
79702;SDS011;69172;52.352;5.006;2023-07-13T01:21:26;16.92;;;3.47;;
79702;SDS011;69172;52.352;5.006;2023-07-13T01:23:53;17.10;;;3.00;;
79702;SDS011;69172;52.352;5.006;2023-07-13T01:26:18;13.77;;;2.20;;
79702;SDS011;69172;52.352;5.006;2023-07-13T01:28:44;16.00;;;2.83;;
79702;SDS011;69172;52.352;5.006;2023-07-13T01:31:09;15.48;;;2.90;;
79702;SDS011;69172;52.352;5.006;2023-07-13T01:33:36;13.48;;;2.17;;
79702;SDS011;69172;52.352;5.006;2023-07-13T01:36:05;11.00;;;1.90;;
79702;SDS011;69172;52.352;5.006;2023-07-13T01:38:31;7.03;;;1.92;;
79702;SDS011;69172;52.352;5.006;2023-07-13T01:40:59;12.70;;;2.65;;
79702;SDS011;69172;52.352;5.006;2023-07-13T01:43:24;15.10;;;2.28;;
79702;SDS011;69172;52.352;5.006;2023-07-13T01:45:50;6.78;;;1.75;;
79702;SDS011;69172;52.352;5.006;2023-07-13T01:48:16;8.95;;;1.83;;
79702;SDS011;69172;52.352;5.006;2023-07-13T01:50:41;12.35;;;2.35;;
79702;SDS011;69172;52.352;5.006;2023-07-13T01:53:07;10.82;;;1.67;;
79702;SDS011;69172;52.352;5.006;2023-07-13T01:55:34;12.35;;;2.10;;
79702;SDS011;69172;52.352;5.006;2023-07-13T01:58:01;14.50;;;1.92;;
79702;SDS011;69172;52.352;5.006;2023-07-13T02:00:27;5.43;;;1.52;;
79702;SDS011;69172;52.352;5.006;2023-07-13T02:02:53;10.25;;;1.83;;
79702;SDS011;69172;52.352;5.006;2023-07-13T02:05:18;11.88;;;2.53;;
79702;SDS011;69172;52.352;5.006;2023-07-13T02:07:44;8.25;;;1.58;;
79702;SDS011;69172;52.352;5.006;2023-07-13T02:10:10;7.85;;;1.73;;
79702;SDS011;69172;52.352;5.006;2023-07-13T02:12:37;6.22;;;1.55;;
79702;SDS011;69172;52.352;5.006;2023-07-13T02:15:03;4.05;;;1.38;;
79702;SDS011;69172;52.352;5.006;2023-07-13T02:17:30;9.15;;;1.88;;
79702;SDS011;69172;52.352;5.006;2023-07-13T02:19:56;8.60;;;1.60;;
79702;SDS011;69172;52.352;5.006;2023-07-13T02:22:21;9.25;;;1.45;;
79702;SDS011;69172;52.352;5.006;2023-07-13T02:24:48;14.27;;;1.60;;
79702;SDS011;69172;52.352;5.006;2023-07-13T02:27:14;11.60;;;2.42;;
79702;SDS011;69172;52.352;5.006;2023-07-13T02:29:39;7.03;;;1.38;;
79702;SDS011;69172;52.352;5.006;2023-07-13T02:32:05;10.98;;;1.77;;
79702;SDS011;69172;52.352;5.006;2023-07-13T02:34:31;11.38;;;2.08;;
79702;SDS011;69172;52.352;5.006;2023-07-13T02:36:57;11.18;;;2.00;;
79702;SDS011;69172;52.352;5.006;2023-07-13T02:39:22;7.03;;;1.65;;
79702;SDS011;69172;52.352;5.006;2023-07-13T02:41:48;6.30;;;1.50;;
79702;SDS011;69172;52.352;5.006;2023-07-13T02:44:16;6.32;;;1.77;;
79702;SDS011;69172;52.352;5.006;2023-07-13T02:46:41;12.43;;;2.28;;
79702;SDS011;69172;52.352;5.006;2023-07-13T02:49:07;6.95;;;1.42;;
79702;SDS011;69172;52.352;5.006;2023-07-13T02:51:32;16.75;;;2.15;;
79702;SDS011;69172;52.352;5.006;2023-07-13T02:53:59;7.55;;;1.38;;
79702;SDS011;69172;52.352;5.006;2023-07-13T02:56:29;7.45;;;1.65;;
79702;SDS011;69172;52.352;5.006;2023-07-13T02:58:56;7.30;;;1.75;;
79702;SDS011;69172;52.352;5.006;2023-07-13T03:01:22;6.88;;;1.50;;
79702;SDS011;69172;52.352;5.006;2023-07-13T03:03:49;6.15;;;1.17;;
79702;SDS011;69172;52.352;5.006;2023-07-13T03:06:16;7.40;;;1.60;;
79702;SDS011;69172;52.352;5.006;2023-07-13T03:08:43;5.88;;;1.45;;
79702;SDS011;69172;52.352;5.006;2023-07-13T03:11:10;13.30;;;1.50;;
79702;SDS011;69172;52.352;5.006;2023-07-13T03:13:39;5.57;;;1.55;;
79702;SDS011;69172;52.352;5.006;2023-07-13T03:16:05;8.07;;;1.25;;
79702;SDS011;69172;52.352;5.006;2023-07-13T03:18:31;7.63;;;1.73;;
79702;SDS011;69172;52.352;5.006;2023-07-13T03:20:57;6.25;;;1.70;;
79702;SDS011;69172;52.352;5.006;2023-07-13T03:23:25;6.35;;;1.67;;
79702;SDS011;69172;52.352;5.006;2023-07-13T03:26:00;4.82;;;1.20;;
79702;SDS011;69172;52.352;5.006;2023-07-13T03:28:29;6.25;;;1.33;;
79702;SDS011;69172;52.352;5.006;2023-07-13T03:31:02;7.75;;;1.48;;
79702;SDS011;69172;52.352;5.006;2023-07-13T03:33:29;6.93;;;1.80;;
79702;SDS011;69172;52.352;5.006;2023-07-13T03:35:55;5.55;;;1.30;;
79702;SDS011;69172;52.352;5.006;2023-07-13T03:38:21;6.90;;;1.27;;
79702;SDS011;69172;52.352;5.006;2023-07-13T03:40:47;7.25;;;2.17;;
79702;SDS011;69172;52.352;5.006;2023-07-13T03:43:12;8.35;;;1.65;;
79702;SDS011;69172;52.352;5.006;2023-07-13T03:45:39;4.32;;;1.58;;
79702;SDS011;69172;52.352;5.006;2023-07-13T03:48:04;8.70;;;1.40;;
79702;SDS011;69172;52.352;5.006;2023-07-13T03:50:30;8.23;;;1.65;;
79702;SDS011;69172;52.352;5.006;2023-07-13T03:52:57;5.60;;;1.15;;
79702;SDS011;69172;52.352;5.006;2023-07-13T03:55:23;6.00;;;1.42;;
79702;SDS011;69172;52.352;5.006;2023-07-13T03:57:53;5.05;;;1.30;;
79702;SDS011;69172;52.352;5.006;2023-07-13T04:00:22;4.90;;;1.23;;
79702;SDS011;69172;52.352;5.006;2023-07-13T04:02:48;9.45;;;1.67;;
79702;SDS011;69172;52.352;5.006;2023-07-13T04:05:14;4.60;;;1.42;;
79702;SDS011;69172;52.352;5.006;2023-07-13T04:07:40;5.45;;;1.48;;
79702;SDS011;69172;52.352;5.006;2023-07-13T04:10:07;6.20;;;1.50;;
79702;SDS011;69172;52.352;5.006;2023-07-13T04:12:33;9.07;;;1.42;;
79702;SDS011;69172;52.352;5.006;2023-07-13T04:14:58;5.88;;;1.40;;
79702;SDS011;69172;52.352;5.006;2023-07-13T04:17:23;6.85;;;1.52;;
79702;SDS011;69172;52.352;5.006;2023-07-13T04:19:49;8.00;;;1.90;;
79702;SDS011;69172;52.352;5.006;2023-07-13T04:22:15;10.95;;;1.60;;
79702;SDS011;69172;52.352;5.006;2023-07-13T04:24:40;8.88;;;1.48;;
79702;SDS011;69172;52.352;5.006;2023-07-13T04:27:06;11.20;;;1.90;;
79702;SDS011;69172;52.352;5.006;2023-07-13T04:29:32;7.20;;;1.60;;
79702;SDS011;69172;52.352;5.006;2023-07-13T04:31:57;4.60;;;1.45;;
79702;SDS011;69172;52.352;5.006;2023-07-13T04:34:23;14.77;;;2.53;;
79702;SDS011;69172;52.352;5.006;2023-07-13T04:36:49;8.65;;;1.77;;
79702;SDS011;69172;52.352;5.006;2023-07-13T04:39:15;6.72;;;1.90;;
79702;SDS011;69172;52.352;5.006;2023-07-13T04:41:40;7.57;;;2.22;;
79702;SDS011;69172;52.352;5.006;2023-07-13T04:44:06;10.45;;;1.80;;
79702;SDS011;69172;52.352;5.006;2023-07-13T04:46:31;9.77;;;2.60;;
79702;SDS011;69172;52.352;5.006;2023-07-13T04:48:57;7.63;;;2.25;;
79702;SDS011;69172;52.352;5.006;2023-07-13T04:51:23;12.52;;;2.15;;
79702;SDS011;69172;52.352;5.006;2023-07-13T04:53:49;10.10;;;2.80;;
79702;SDS011;69172;52.352;5.006;2023-07-13T04:56:14;8.45;;;1.98;;
79702;SDS011;69172;52.352;5.006;2023-07-13T04:58:40;11.23;;;2.60;;
79702;SDS011;69172;52.352;5.006;2023-07-13T05:01:06;12.23;;;2.30;;
79702;SDS011;69172;52.352;5.006;2023-07-13T05:03:32;11.77;;;2.28;;
79702;SDS011;69172;52.352;5.006;2023-07-13T05:05:59;12.27;;;2.45;;
79702;SDS011;69172;52.352;5.006;2023-07-13T05:08:26;13.95;;;2.20;;
79702;SDS011;69172;52.352;5.006;2023-07-13T05:10:52;11.50;;;2.15;;
79702;SDS011;69172;52.352;5.006;2023-07-13T05:13:18;10.23;;;2.40;;
79702;SDS011;69172;52.352;5.006;2023-07-13T05:15:44;12.07;;;2.20;;
79702;SDS011;69172;52.352;5.006;2023-07-13T05:18:10;9.95;;;2.65;;
79702;SDS011;69172;52.352;5.006;2023-07-13T05:20:36;13.40;;;3.08;;
79702;SDS011;69172;52.352;5.006;2023-07-13T05:23:02;10.73;;;2.83;;
79702;SDS011;69172;52.352;5.006;2023-07-13T05:25:28;8.77;;;2.03;;
79702;SDS011;69172;52.352;5.006;2023-07-13T05:27:53;15.13;;;2.90;;
79702;SDS011;69172;52.352;5.006;2023-07-13T05:30:19;12.50;;;3.42;;
79702;SDS011;69172;52.352;5.006;2023-07-13T05:32:44;15.07;;;3.65;;
79702;SDS011;69172;52.352;5.006;2023-07-13T05:35:10;13.77;;;3.00;;
79702;SDS011;69172;52.352;5.006;2023-07-13T05:37:37;12.63;;;3.15;;
79702;SDS011;69172;52.352;5.006;2023-07-13T05:40:03;14.73;;;3.40;;
79702;SDS011;69172;52.352;5.006;2023-07-13T05:42:29;14.13;;;4.10;;
79702;SDS011;69172;52.352;5.006;2023-07-13T05:44:56;15.25;;;3.35;;
79702;SDS011;69172;52.352;5.006;2023-07-13T05:47:22;12.73;;;3.80;;
79702;SDS011;69172;52.352;5.006;2023-07-13T05:49:47;15.13;;;3.50;;
79702;SDS011;69172;52.352;5.006;2023-07-13T05:52:12;15.82;;;3.28;;
79702;SDS011;69172;52.352;5.006;2023-07-13T05:54:40;15.80;;;3.42;;
79702;SDS011;69172;52.352;5.006;2023-07-13T05:57:05;15.45;;;4.03;;
79702;SDS011;69172;52.352;5.006;2023-07-13T05:59:31;14.80;;;3.55;;
79702;SDS011;69172;52.352;5.006;2023-07-13T06:01:57;16.80;;;3.65;;
79702;SDS011;69172;52.352;5.006;2023-07-13T06:04:22;16.25;;;3.90;;
79702;SDS011;69172;52.352;5.006;2023-07-13T06:06:58;13.40;;;3.00;;
79702;SDS011;69172;52.352;5.006;2023-07-13T06:09:23;18.70;;;4.30;;
79702;SDS011;69172;52.352;5.006;2023-07-13T06:11:49;16.48;;;3.75;;
79702;SDS011;69172;52.352;5.006;2023-07-13T06:14:14;13.57;;;3.83;;
79702;SDS011;69172;52.352;5.006;2023-07-13T06:16:39;16.48;;;3.65;;
79702;SDS011;69172;52.352;5.006;2023-07-13T06:19:06;17.85;;;3.63;;
79702;SDS011;69172;52.352;5.006;2023-07-13T06:21:31;13.57;;;3.53;;
79702;SDS011;69172;52.352;5.006;2023-07-13T06:23:58;12.95;;;3.40;;
79702;SDS011;69172;52.352;5.006;2023-07-13T06:26:23;14.57;;;4.18;;
79702;SDS011;69172;52.352;5.006;2023-07-13T06:28:49;11.93;;;3.30;;
79702;SDS011;69172;52.352;5.006;2023-07-13T06:31:14;10.68;;;3.17;;
79702;SDS011;69172;52.352;5.006;2023-07-13T06:33:41;12.95;;;2.88;;
79702;SDS011;69172;52.352;5.006;2023-07-13T06:36:07;11.60;;;2.55;;
79702;SDS011;69172;52.352;5.006;2023-07-13T06:38:34;12.02;;;3.13;;
79702;SDS011;69172;52.352;5.006;2023-07-13T06:41:00;9.02;;;2.83;;
79702;SDS011;69172;52.352;5.006;2023-07-13T06:43:25;8.52;;;2.83;;
79702;SDS011;69172;52.352;5.006;2023-07-13T06:45:51;9.15;;;2.40;;
79702;SDS011;69172;52.352;5.006;2023-07-13T06:48:20;14.02;;;2.70;;
79702;SDS011;69172;52.352;5.006;2023-07-13T06:50:47;17.27;;;3.20;;
79702;SDS011;69172;52.352;5.006;2023-07-13T06:53:14;8.73;;;2.30;;
79702;SDS011;69172;52.352;5.006;2023-07-13T06:55:40;8.98;;;2.67;;
79702;SDS011;69172;52.352;5.006;2023-07-13T06:58:10;11.05;;;2.70;;
79702;SDS011;69172;52.352;5.006;2023-07-13T07:00:35;10.52;;;2.83;;
79702;SDS011;69172;52.352;5.006;2023-07-13T07:03:00;10.15;;;2.92;;
79702;SDS011;69172;52.352;5.006;2023-07-13T07:05:26;6.68;;;2.10;;
79702;SDS011;69172;52.352;5.006;2023-07-13T07:07:54;12.68;;;2.38;;
79702;SDS011;69172;52.352;5.006;2023-07-13T07:10:20;10.23;;;2.60;;
79702;SDS011;69172;52.352;5.006;2023-07-13T07:12:46;5.70;;;2.08;;
79702;SDS011;69172;52.352;5.006;2023-07-13T07:15:12;7.82;;;2.40;;
79702;SDS011;69172;52.352;5.006;2023-07-13T07:17:39;7.72;;;2.47;;
79702;SDS011;69172;52.352;5.006;2023-07-13T07:20:05;7.43;;;2.00;;
79702;SDS011;69172;52.352;5.006;2023-07-13T07:22:31;8.02;;;2.58;;
79702;SDS011;69172;52.352;5.006;2023-07-13T07:24:57;7.85;;;2.10;;
79702;SDS011;69172;52.352;5.006;2023-07-13T07:27:22;7.63;;;2.30;;
79702;SDS011;69172;52.352;5.006;2023-07-13T07:29:49;11.13;;;2.55;;
79702;SDS011;69172;52.352;5.006;2023-07-13T07:32:14;7.15;;;2.22;;
79702;SDS011;69172;52.352;5.006;2023-07-13T07:34:40;7.53;;;2.33;;
79702;SDS011;69172;52.352;5.006;2023-07-13T07:37:05;11.00;;;2.35;;
79702;SDS011;69172;52.352;5.006;2023-07-13T07:39:31;8.32;;;2.47;;
79702;SDS011;69172;52.352;5.006;2023-07-13T07:41:57;14.85;;;2.28;;
79702;SDS011;69172;52.352;5.006;2023-07-13T07:44:22;8.85;;;2.47;;
79702;SDS011;69172;52.352;5.006;2023-07-13T07:46:48;7.38;;;2.17;;
79702;SDS011;69172;52.352;5.006;2023-07-13T07:49:14;9.77;;;2.08;;
79702;SDS011;69172;52.352;5.006;2023-07-13T07:51:40;7.97;;;2.22;;
79702;SDS011;69172;52.352;5.006;2023-07-13T07:54:05;9.15;;;2.13;;
79702;SDS011;69172;52.352;5.006;2023-07-13T07:56:31;8.88;;;2.30;;
79702;SDS011;69172;52.352;5.006;2023-07-13T07:58:58;9.55;;;2.28;;
79702;SDS011;69172;52.352;5.006;2023-07-13T08:01:24;8.88;;;2.10;;
79702;SDS011;69172;52.352;5.006;2023-07-13T08:03:50;8.32;;;2.17;;
79702;SDS011;69172;52.352;5.006;2023-07-13T08:06:15;10.82;;;2.22;;
79702;SDS011;69172;52.352;5.006;2023-07-13T08:08:42;12.00;;;2.30;;
79702;SDS011;69172;52.352;5.006;2023-07-13T08:11:08;12.00;;;2.45;;
79702;SDS011;69172;52.352;5.006;2023-07-13T08:13:34;7.28;;;2.10;;
79702;SDS011;69172;52.352;5.006;2023-07-13T08:16:00;10.00;;;2.78;;
79702;SDS011;69172;52.352;5.006;2023-07-13T08:18:26;9.85;;;2.58;;
79702;SDS011;69172;52.352;5.006;2023-07-13T08:20:53;8.07;;;2.25;;
79702;SDS011;69172;52.352;5.006;2023-07-13T08:23:21;11.07;;;2.35;;
79702;SDS011;69172;52.352;5.006;2023-07-13T08:25:50;7.93;;;1.75;;
79702;SDS011;69172;52.352;5.006;2023-07-13T08:28:19;8.00;;;1.92;;
79702;SDS011;69172;52.352;5.006;2023-07-13T08:30:47;9.50;;;2.05;;
79702;SDS011;69172;52.352;5.006;2023-07-13T08:33:17;7.85;;;2.10;;
79702;SDS011;69172;52.352;5.006;2023-07-13T08:35:48;6.88;;;1.92;;
79702;SDS011;69172;52.352;5.006;2023-07-13T08:38:16;7.82;;;2.00;;
79702;SDS011;69172;52.352;5.006;2023-07-13T08:40:42;9.40;;;2.13;;
79702;SDS011;69172;52.352;5.006;2023-07-13T08:43:20;10.30;;;2.10;;
79702;SDS011;69172;52.352;5.006;2023-07-13T08:45:52;4.70;;;1.75;;
79702;SDS011;69172;52.352;5.006;2023-07-13T08:48:22;8.93;;;1.98;;
79702;SDS011;69172;52.352;5.006;2023-07-13T08:53:47;12.02;;;2.45;;
79702;SDS011;69172;52.352;5.006;2023-07-13T08:56:36;7.82;;;2.08;;
79702;SDS011;69172;52.352;5.006;2023-07-13T08:59:05;6.18;;;2.10;;
79702;SDS011;69172;52.352;5.006;2023-07-13T09:04:25;8.95;;;2.42;;
79702;SDS011;69172;52.352;5.006;2023-07-13T09:09:45;6.78;;;2.03;;
79702;SDS011;69172;52.352;5.006;2023-07-13T09:14:56;7.05;;;1.80;;
79702;SDS011;69172;52.352;5.006;2023-07-13T09:17:25;6.85;;;1.80;;
79702;SDS011;69172;52.352;5.006;2023-07-13T09:22:44;7.60;;;2.25;;
79702;SDS011;69172;52.352;5.006;2023-07-13T09:25:18;7.38;;;1.83;;
79702;SDS011;69172;52.352;5.006;2023-07-13T09:27:55;10.13;;;2.08;;
79702;SDS011;69172;52.352;5.006;2023-07-13T09:31:12;6.70;;;1.95;;
79702;SDS011;69172;52.352;5.006;2023-07-13T09:33:29;8.35;;;2.05;;
79702;SDS011;69172;52.352;5.006;2023-07-13T09:35:56;8.43;;;1.80;;
79702;SDS011;69172;52.352;5.006;2023-07-13T09:38:24;6.60;;;1.88;;
79702;SDS011;69172;52.352;5.006;2023-07-13T09:44:06;10.52;;;2.13;;
79702;SDS011;69172;52.352;5.006;2023-07-13T09:46:31;9.88;;;2.30;;
79702;SDS011;69172;52.352;5.006;2023-07-13T09:48:57;9.27;;;2.00;;
79702;SDS011;69172;52.352;5.006;2023-07-13T09:51:22;10.73;;;2.50;;
79702;SDS011;69172;52.352;5.006;2023-07-13T09:53:48;7.95;;;2.15;;
79702;SDS011;69172;52.352;5.006;2023-07-13T09:56:21;8.85;;;2.10;;
79702;SDS011;69172;52.352;5.006;2023-07-13T09:58:57;7.38;;;2.10;;
79702;SDS011;69172;52.352;5.006;2023-07-13T10:01:36;6.68;;;2.22;;
79702;SDS011;69172;52.352;5.006;2023-07-13T10:04:10;8.10;;;2.40;;
79702;SDS011;69172;52.352;5.006;2023-07-13T10:06:38;9.45;;;2.53;;
79702;SDS011;69172;52.352;5.006;2023-07-13T10:09:08;9.93;;;2.47;;
79702;SDS011;69172;52.352;5.006;2023-07-13T10:11:34;9.63;;;2.30;;
79702;SDS011;69172;52.352;5.006;2023-07-13T10:14:03;8.48;;;2.17;;
79702;SDS011;69172;52.352;5.006;2023-07-13T10:16:34;6.15;;;1.88;;
79702;SDS011;69172;52.352;5.006;2023-07-13T10:19:05;6.25;;;1.80;;
79702;SDS011;69172;52.352;5.006;2023-07-13T10:21:38;10.02;;;1.83;;
79702;SDS011;69172;52.352;5.006;2023-07-13T10:24:22;8.75;;;2.17;;
79702;SDS011;69172;52.352;5.006;2023-07-13T10:29:47;6.20;;;2.10;;
79702;SDS011;69172;52.352;5.006;2023-07-13T10:32:20;6.85;;;1.77;;
79702;SDS011;69172;52.352;5.006;2023-07-13T10:34:48;7.63;;;2.45;;
79702;SDS011;69172;52.352;5.006;2023-07-13T10:37:22;7.20;;;2.00;;
79702;SDS011;69172;52.352;5.006;2023-07-13T10:39:54;8.63;;;2.65;;
79702;SDS011;69172;52.352;5.006;2023-07-13T10:42:40;9.60;;;2.28;;
79702;SDS011;69172;52.352;5.006;2023-07-13T10:45:17;7.15;;;1.83;;
79702;SDS011;69172;52.352;5.006;2023-07-13T10:47:45;9.93;;;2.30;;
79702;SDS011;69172;52.352;5.006;2023-07-13T10:50:23;7.45;;;2.13;;
79702;SDS011;69172;52.352;5.006;2023-07-13T10:52:51;7.05;;;2.22;;
79702;SDS011;69172;52.352;5.006;2023-07-13T10:55:36;6.78;;;2.10;;
79702;SDS011;69172;52.352;5.006;2023-07-13T10:58:20;7.45;;;1.95;;
79702;SDS011;69172;52.352;5.006;2023-07-13T11:01:29;8.98;;;1.90;;
79702;SDS011;69172;52.352;5.006;2023-07-13T11:06:12;8.60;;;2.25;;
79702;SDS011;69172;52.352;5.006;2023-07-13T11:08:57;7.97;;;2.15;;
79702;SDS011;69172;52.352;5.006;2023-07-13T11:18:47;9.63;;;2.20;;
79702;SDS011;69172;52.352;5.006;2023-07-13T11:21:36;6.50;;;1.83;;
79702;SDS011;69172;52.352;5.006;2023-07-13T11:24:49;6.65;;;2.25;;
79702;SDS011;69172;52.352;5.006;2023-07-13T11:30:07;11.13;;;2.22;;
79702;SDS011;69172;52.352;5.006;2023-07-13T11:32:50;8.18;;;2.13;;
79702;SDS011;69172;52.352;5.006;2023-07-13T11:35:30;8.45;;;1.98;;
79702;SDS011;69172;52.352;5.006;2023-07-13T11:37:59;10.95;;;2.60;;
79702;SDS011;69172;52.352;5.006;2023-07-13T11:40:25;11.18;;;2.22;;
79702;SDS011;69172;52.352;5.006;2023-07-13T11:43:01;11.05;;;2.45;;
79702;SDS011;69172;52.352;5.006;2023-07-13T11:45:27;8.05;;;2.38;;
79702;SDS011;69172;52.352;5.006;2023-07-13T11:47:53;7.57;;;2.25;;
79702;SDS011;69172;52.352;5.006;2023-07-13T11:50:23;7.55;;;2.00;;
79702;SDS011;69172;52.352;5.006;2023-07-13T11:52:50;8.13;;;2.13;;
79702;SDS011;69172;52.352;5.006;2023-07-13T11:55:21;7.07;;;2.33;;
79702;SDS011;69172;52.352;5.006;2023-07-13T11:57:49;7.57;;;2.00;;
79702;SDS011;69172;52.352;5.006;2023-07-13T12:00:21;6.55;;;2.00;;
79702;SDS011;69172;52.352;5.006;2023-07-13T12:02:49;7.97;;;2.45;;
79702;SDS011;69172;52.352;5.006;2023-07-13T12:05:17;9.27;;;2.28;;
79702;SDS011;69172;52.352;5.006;2023-07-13T12:07:44;6.32;;;2.10;;
79702;SDS011;69172;52.352;5.006;2023-07-13T12:10:29;8.00;;;2.33;;
79702;SDS011;69172;52.352;5.006;2023-07-13T12:13:00;8.73;;;2.00;;
79702;SDS011;69172;52.352;5.006;2023-07-13T12:15:36;7.82;;;2.13;;
79702;SDS011;69172;52.352;5.006;2023-07-13T12:18:11;6.45;;;2.00;;
79702;SDS011;69172;52.352;5.006;2023-07-13T12:20:39;8.70;;;2.50;;
79702;SDS011;69172;52.352;5.006;2023-07-13T12:23:05;6.65;;;1.95;;
79702;SDS011;69172;52.352;5.006;2023-07-13T12:26:04;6.18;;;1.90;;
79702;SDS011;69172;52.352;5.006;2023-07-13T12:28:38;9.93;;;2.50;;
79702;SDS011;69172;52.352;5.006;2023-07-13T12:31:22;6.63;;;2.17;;
79702;SDS011;69172;52.352;5.006;2023-07-13T12:33:48;6.03;;;2.10;;
79702;SDS011;69172;52.352;5.006;2023-07-13T12:36:48;7.20;;;2.05;;
79702;SDS011;69172;52.352;5.006;2023-07-13T12:39:23;9.48;;;2.00;;
79702;SDS011;69172;52.352;5.006;2023-07-13T12:41:53;7.72;;;2.50;;
79702;SDS011;69172;52.352;5.006;2023-07-13T12:44:29;8.52;;;2.20;;
79702;SDS011;69172;52.352;5.006;2023-07-13T12:46:58;11.30;;;3.58;;
79702;SDS011;69172;52.352;5.006;2023-07-13T12:49:30;7.63;;;2.08;;
79702;SDS011;69172;52.352;5.006;2023-07-13T12:52:00;7.78;;;2.42;;
79702;SDS011;69172;52.352;5.006;2023-07-13T12:54:29;7.55;;;2.50;;
79702;SDS011;69172;52.352;5.006;2023-07-13T12:56:56;6.78;;;2.08;;
79702;SDS011;69172;52.352;5.006;2023-07-13T12:59:23;8.65;;;2.60;;
79702;SDS011;69172;52.352;5.006;2023-07-13T13:01:53;6.55;;;2.20;;
79702;SDS011;69172;52.352;5.006;2023-07-13T13:04:19;8.43;;;2.33;;
79702;SDS011;69172;52.352;5.006;2023-07-13T13:06:46;9.98;;;1.92;;
79702;SDS011;69172;52.352;5.006;2023-07-13T13:09:13;9.45;;;2.25;;
79702;SDS011;69172;52.352;5.006;2023-07-13T13:11:40;8.98;;;2.47;;
79702;SDS011;69172;52.352;5.006;2023-07-13T13:14:06;5.90;;;1.95;;
79702;SDS011;69172;52.352;5.006;2023-07-13T13:16:34;7.28;;;2.50;;
79702;SDS011;69172;52.352;5.006;2023-07-13T13:19:46;8.10;;;2.28;;
79702;SDS011;69172;52.352;5.006;2023-07-13T13:21:53;6.93;;;2.20;;
79702;SDS011;69172;52.352;5.006;2023-07-13T13:24:23;6.35;;;2.15;;
79702;SDS011;69172;52.352;5.006;2023-07-13T13:26:51;7.43;;;2.20;;
79702;SDS011;69172;52.352;5.006;2023-07-13T13:29:20;9.43;;;2.38;;
79702;SDS011;69172;52.352;5.006;2023-07-13T13:31:49;8.10;;;2.72;;
79702;SDS011;69172;52.352;5.006;2023-07-13T13:34:17;8.43;;;2.40;;
79702;SDS011;69172;52.352;5.006;2023-07-13T13:36:43;9.43;;;2.30;;
79702;SDS011;69172;52.352;5.006;2023-07-13T13:39:16;12.48;;;2.42;;
79702;SDS011;69172;52.352;5.006;2023-07-13T13:41:48;8.68;;;2.35;;
79702;SDS011;69172;52.352;5.006;2023-07-13T13:44:18;9.23;;;2.50;;
79702;SDS011;69172;52.352;5.006;2023-07-13T13:46:45;7.85;;;2.45;;
79702;SDS011;69172;52.352;5.006;2023-07-13T13:49:14;8.63;;;2.40;;
79702;SDS011;69172;52.352;5.006;2023-07-13T13:51:42;8.90;;;2.47;;
79702;SDS011;69172;52.352;5.006;2023-07-13T13:54:16;8.90;;;2.00;;
79702;SDS011;69172;52.352;5.006;2023-07-13T13:56:43;7.88;;;2.05;;
79702;SDS011;69172;52.352;5.006;2023-07-13T13:59:10;6.80;;;1.92;;
79702;SDS011;69172;52.352;5.006;2023-07-13T14:01:37;8.10;;;2.35;;
79702;SDS011;69172;52.352;5.006;2023-07-13T14:04:03;10.77;;;2.28;;
79702;SDS011;69172;52.352;5.006;2023-07-13T14:06:29;7.78;;;1.98;;
79702;SDS011;69172;52.352;5.006;2023-07-13T14:08:54;7.80;;;2.63;;
79702;SDS011;69172;52.352;5.006;2023-07-13T14:11:21;6.00;;;1.83;;
79702;SDS011;69172;52.352;5.006;2023-07-13T14:13:50;7.25;;;2.25;;
79702;SDS011;69172;52.352;5.006;2023-07-13T14:16:19;7.82;;;2.33;;
79702;SDS011;69172;52.352;5.006;2023-07-13T14:18:46;6.40;;;2.20;;
79702;SDS011;69172;52.352;5.006;2023-07-13T14:21:17;6.82;;;2.13;;
79702;SDS011;69172;52.352;5.006;2023-07-13T14:23:44;9.35;;;2.33;;
79702;SDS011;69172;52.352;5.006;2023-07-13T14:26:15;7.72;;;2.00;;
79702;SDS011;69172;52.352;5.006;2023-07-13T14:29:01;8.73;;;2.40;;
79702;SDS011;69172;52.352;5.006;2023-07-13T14:31:30;7.18;;;2.50;;
79702;SDS011;69172;52.352;5.006;2023-07-13T14:33:57;10.35;;;3.47;;
79702;SDS011;69172;52.352;5.006;2023-07-13T14:36:30;5.50;;;1.83;;
79702;SDS011;69172;52.352;5.006;2023-07-13T14:39:00;5.38;;;1.70;;
79702;SDS011;69172;52.352;5.006;2023-07-13T14:41:35;10.07;;;2.50;;
79702;SDS011;69172;52.352;5.006;2023-07-13T14:44:00;8.35;;;2.90;;
79702;SDS011;69172;52.352;5.006;2023-07-13T14:46:33;8.20;;;2.45;;
79702;SDS011;69172;52.352;5.006;2023-07-13T14:52:00;8.00;;;2.97;;
79702;SDS011;69172;52.352;5.006;2023-07-13T14:54:29;8.70;;;2.53;;
79702;SDS011;69172;52.352;5.006;2023-07-13T14:56:55;8.00;;;2.42;;
79702;SDS011;69172;52.352;5.006;2023-07-13T14:59:20;7.90;;;2.10;;
79702;SDS011;69172;52.352;5.006;2023-07-13T15:01:46;8.00;;;2.08;;
79702;SDS011;69172;52.352;5.006;2023-07-13T15:04:13;8.18;;;2.25;;
79702;SDS011;69172;52.352;5.006;2023-07-13T15:06:59;6.75;;;1.88;;
79702;SDS011;69172;52.352;5.006;2023-07-13T15:09:27;7.18;;;2.90;;
79702;SDS011;69172;52.352;5.006;2023-07-13T15:11:57;6.10;;;1.90;;
79702;SDS011;69172;52.352;5.006;2023-07-13T15:14:23;7.20;;;2.40;;
79702;SDS011;69172;52.352;5.006;2023-07-13T15:16:51;4.82;;;1.92;;
79702;SDS011;69172;52.352;5.006;2023-07-13T15:19:18;9.13;;;3.65;;
79702;SDS011;69172;52.352;5.006;2023-07-13T15:21:46;6.90;;;2.25;;
79702;SDS011;69172;52.352;5.006;2023-07-13T15:24:12;6.82;;;2.72;;
79702;SDS011;69172;52.352;5.006;2023-07-13T15:26:39;4.90;;;2.10;;